createdAt,value
2022-11-16T02:32:56.140Z,101326.25
2022-11-16T02:35:30.678Z,101323.47
2022-11-16T02:38:06.903Z,101321.16
2022-11-16T02:40:36.075Z,101308.88
2022-11-16T02:43:29.652Z,101309.47
2022-11-16T02:45:59.675Z,101313.09
2022-11-16T02:48:31.732Z,101316.25
2022-11-16T02:51:00.403Z,101320.09
2022-11-16T02:53:28.085Z,101326.47
2022-11-16T02:55:57.202Z,101305.47
2022-11-16T02:58:28.195Z,101315.00
2022-11-16T03:01:03.055Z,101305.69
2022-11-16T03:03:39.166Z,101308.88
2022-11-16T03:06:28.317Z,101305.94
2022-11-16T03:08:57.865Z,101319.31
2022-11-16T03:11:44.040Z,101333.13
2022-11-16T03:14:14.690Z,101342.50
2022-11-16T03:16:49.699Z,101348.03
2022-11-16T03:19:36.074Z,101357.41
2022-11-16T03:22:28.796Z,101345.50
2022-11-16T03:24:58.103Z,101321.06
2022-11-16T03:27:37.720Z,101303.63
2022-11-16T03:30:26.581Z,101300.09
2022-11-16T03:32:58.430Z,101310.22
2022-11-16T03:35:33.462Z,101304.09
2022-11-16T03:38:01.932Z,101296.25
2022-11-16T03:40:31.615Z,101286.72
2022-11-16T03:43:01.571Z,101290.09
2022-11-16T03:49:09.441Z,101291.31
2022-11-16T03:51:37.276Z,101304.81
2022-11-16T03:54:05.768Z,101297.59
2022-11-16T03:56:35.646Z,101301.91
2022-11-16T03:59:03.121Z,101314.66
2022-11-16T04:01:31.052Z,101315.34
2022-11-16T04:03:58.784Z,101311.97
2022-11-16T04:06:44.869Z,101310.88
2022-11-16T04:09:31.377Z,101302.97
2022-11-16T04:12:20.695Z,101313.44
2022-11-16T04:15:27.555Z,101299.59
2022-11-16T04:18:13.638Z,101292.84
2022-11-16T04:21:02.067Z,101287.50
2022-11-16T04:23:48.967Z,101297.09
2022-11-16T04:26:17.667Z,101301.53
2022-11-16T04:28:44.967Z,101303.25
2022-11-16T04:31:32.633Z,101289.63
2022-11-16T04:34:18.974Z,101287.09
2022-11-16T04:37:06.109Z,101279.25
2022-11-16T04:39:34.567Z,101287.72
2022-11-16T04:42:19.974Z,101289.25
2022-11-16T04:45:08.187Z,101284.56
2022-11-16T04:47:35.738Z,101288.16
2022-11-16T04:50:03.410Z,101276.72
2022-11-16T04:52:33.440Z,101263.75
2022-11-16T04:55:02.006Z,101279.88
2022-11-16T04:57:29.543Z,101267.56
2022-11-16T04:59:57.227Z,101284.78
2022-11-16T05:02:24.838Z,101284.78
2022-11-16T05:04:53.267Z,101291.38
2022-11-16T05:07:21.568Z,101289.28
2022-11-16T05:09:49.717Z,101295.22
2022-11-16T05:12:21.500Z,101295.41
2022-11-16T05:14:49.467Z,101270.34
2022-11-16T05:17:17.601Z,101274.81
2022-11-16T05:20:03.803Z,101287.94
2022-11-16T05:22:31.490Z,101283.72
2022-11-16T05:24:59.303Z,101281.13
2022-11-16T05:27:27.684Z,101270.06
2022-11-16T05:29:55.855Z,101278.78
2022-11-16T05:32:24.257Z,101275.59
2022-11-16T05:34:52.038Z,101276.88
2022-11-16T05:37:21.817Z,101283.47
2022-11-16T05:39:49.560Z,101284.72
2022-11-16T05:42:19.148Z,101293.59
2022-11-16T05:44:49.050Z,101289.53
2022-11-16T05:47:17.628Z,101285.06
2022-11-16T05:49:46.921Z,101295.91
2022-11-16T05:52:15.673Z,101292.06
2022-11-16T05:54:45.479Z,101283.78
2022-11-16T05:57:14.600Z,101289.31
2022-11-16T05:59:44.531Z,101293.16
2022-11-16T06:02:12.257Z,101302.50
2022-11-16T06:04:42.259Z,101304.22
2022-11-16T06:07:10.348Z,101298.53
2022-11-16T06:09:38.388Z,101316.97
2022-11-16T06:12:10.249Z,101312.06
2022-11-16T06:14:37.846Z,101303.13
2022-11-16T06:17:05.516Z,101316.50
2022-11-16T06:19:33.258Z,101322.66
2022-11-16T06:22:03.290Z,101296.53
2022-11-16T06:24:32.800Z,101312.00
2022-11-16T06:27:01.357Z,101304.78
2022-11-16T06:29:31.236Z,101292.03
